sensor_id;sensor_type;location;lat;lon;timestamp;pressure;altitude;pressure_sealevel;temperature;humidity
53246;BME280;39569;51.090;-1.786;2023-04-19T00:01:07;101852.88;;;16.20;44.07
53246;BME280;39569;51.090;-1.786;2023-04-19T00:03:35;101855.31;;;16.30;43.92
53246;BME280;39569;51.090;-1.786;2023-04-19T00:06:02;101847.03;;;16.17;44.07
53246;BME280;39569;51.090;-1.786;2023-04-19T00:08:29;101855.56;;;16.20;43.63
53246;BME280;39569;51.090;-1.786;2023-04-19T00:10:56;101853.59;;;16.14;44.23
53246;BME280;39569;51.090;-1.786;2023-04-19T00:13:22;101856.47;;;16.13;44.33
53246;BME280;39569;51.090;-1.786;2023-04-19T00:15:49;101847.38;;;15.99;44.58
53246;BME280;39569;51.090;-1.786;2023-04-19T00:18:16;101835.38;;;16.02;44.37
53246;BME280;39569;51.090;-1.786;2023-04-19T00:20:44;101839.19;;;16.07;44.35
53246;BME280;39569;51.090;-1.786;2023-04-19T00:23:13;101835.75;;;15.99;44.47
53246;BME280;39569;51.090;-1.786;2023-04-19T00:25:40;101825.97;;;15.98;44.70
53246;BME280;39569;51.090;-1.786;2023-04-19T00:28:07;101835.53;;;15.86;44.91
53246;BME280;39569;51.090;-1.786;2023-04-19T00:30:33;101830.19;;;15.77;45.32
53246;BME280;39569;51.090;-1.786;2023-04-19T00:33:00;101836.56;;;15.85;45.17
53246;BME280;39569;51.090;-1.786;2023-04-19T00:35:27;101821.97;;;15.94;45.17
53246;BME280;39569;51.090;-1.786;2023-04-19T00:37:55;101821.59;;;15.97;45.22
53246;BME280;39569;51.090;-1.786;2023-04-19T00:40:22;101818.97;;;15.89;45.62
53246;BME280;39569;51.090;-1.786;2023-04-19T00:42:48;101820.00;;;15.88;45.68
53246;BME280;39569;51.090;-1.786;2023-04-19T00:45:15;101811.56;;;15.91;45.66
53246;BME280;39569;51.090;-1.786;2023-04-19T00:47:42;101817.78;;;15.91;45.90
53246;BME280;39569;51.090;-1.786;2023-04-19T00:50:10;101815.84;;;16.00;45.66
53246;BME280;39569;51.090;-1.786;2023-04-19T00:52:38;101813.69;;;15.81;46.21
53246;BME280;39569;51.090;-1.786;2023-04-19T00:55:07;101812.56;;;15.75;46.29
53246;BME280;39569;51.090;-1.786;2023-04-19T00:57:34;101808.56;;;15.86;46.38
53246;BME280;39569;51.090;-1.786;2023-04-19T01:00:02;101804.50;;;15.90;46.43
53246;BME280;39569;51.090;-1.786;2023-04-19T01:02:31;101798.94;;;15.91;46.34
53246;BME280;39569;51.090;-1.786;2023-04-19T01:04:57;101801.44;;;15.93;46.32
53246;BME280;39569;51.090;-1.786;2023-04-19T01:07:24;101795.03;;;15.94;46.80
53246;BME280;39569;51.090;-1.786;2023-04-19T01:09:51;101786.19;;;16.00;46.77
53246;BME280;39569;51.090;-1.786;2023-04-19T01:12:19;101790.00;;;15.91;47.08
53246;BME280;39569;51.090;-1.786;2023-04-19T01:14:47;101785.53;;;15.98;46.87
53246;BME280;39569;51.090;-1.786;2023-04-19T01:17:14;101784.72;;;15.83;47.43
53246;BME280;39569;51.090;-1.786;2023-04-19T01:19:42;101778.13;;;16.00;47.08
53246;BME280;39569;51.090;-1.786;2023-04-19T01:22:09;101779.81;;;16.01;47.12
53246;BME280;39569;51.090;-1.786;2023-04-19T01:24:37;101777.28;;;15.85;48.26
53246;BME280;39569;51.090;-1.786;2023-04-19T01:27:04;101774.59;;;15.99;47.89
53246;BME280;39569;51.090;-1.786;2023-04-19T01:29:31;101768.66;;;16.04;48.29
53246;BME280;39569;51.090;-1.786;2023-04-19T01:31:58;101763.44;;;16.31;47.91
53246;BME280;39569;51.090;-1.786;2023-04-19T01:34:24;101764.50;;;16.59;47.42
53246;BME280;39569;51.090;-1.786;2023-04-19T01:36:51;101756.69;;;16.50;48.02
53246;BME280;39569;51.090;-1.786;2023-04-19T01:39:18;101765.34;;;16.31;48.66
53246;BME280;39569;51.090;-1.786;2023-04-19T01:41:46;101763.63;;;16.73;47.67
53246;BME280;39569;51.090;-1.786;2023-04-19T01:44:13;101758.31;;;16.80;47.31
53246;BME280;39569;51.090;-1.786;2023-04-19T01:46:40;101763.28;;;16.62;48.56
53246;BME280;39569;51.090;-1.786;2023-04-19T01:49:07;101757.22;;;16.75;47.95
53246;BME280;39569;51.090;-1.786;2023-04-19T01:51:35;101763.56;;;17.03;47.73
53246;BME280;39569;51.090;-1.786;2023-04-19T01:54:02;101751.38;;;16.92;47.91
53246;BME280;39569;51.090;-1.786;2023-04-19T01:56:29;101756.97;;;17.26;47.21
53246;BME280;39569;51.090;-1.786;2023-04-19T01:58:58;101751.25;;;17.36;46.85
53246;BME280;39569;51.090;-1.786;2023-04-19T02:01:25;101749.47;;;16.86;48.59
53246;BME280;39569;51.090;-1.786;2023-04-19T02:03:52;101743.06;;;17.29;47.74
53246;BME280;39569;51.090;-1.786;2023-04-19T02:06:18;101740.88;;;17.18;47.42
53246;BME280;39569;51.090;-1.786;2023-04-19T02:08:45;101740.34;;;17.29;47.51
53246;BME280;39569;51.090;-1.786;2023-04-19T02:11:12;101739.41;;;17.16;48.12
53246;BME280;39569;51.090;-1.786;2023-04-19T02:13:40;101740.09;;;17.24;48.13
53246;BME280;39569;51.090;-1.786;2023-04-19T02:16:09;101733.19;;;17.36;47.80
53246;BME280;39569;51.090;-1.786;2023-04-19T02:18:36;101729.09;;;17.68;46.93
53246;BME280;39569;51.090;-1.786;2023-04-19T02:21:05;101732.94;;;16.75;49.40
53246;BME280;39569;51.090;-1.786;2023-04-19T02:23:32;101728.78;;;17.35;48.19
53246;BME280;39569;51.090;-1.786;2023-04-19T02:25:59;101722.31;;;17.30;48.46
53246;BME280;39569;51.090;-1.786;2023-04-19T02:28:27;101719.59;;;17.30;48.40
53246;BME280;39569;51.090;-1.786;2023-04-19T02:30:54;101725.06;;;17.36;48.39
53246;BME280;39569;51.090;-1.786;2023-04-19T02:33:22;101720.88;;;16.92;49.38
53246;BME280;39569;51.090;-1.786;2023-04-19T02:35:49;101711.75;;;16.93;49.23
53246;BME280;39569;51.090;-1.786;2023-04-19T02:38:16;101710.53;;;17.37;48.39
53246;BME280;39569;51.090;-1.786;2023-04-19T02:40:42;101710.28;;;17.32;48.52
53246;BME280;39569;51.090;-1.786;2023-04-19T02:43:09;101711.16;;;17.18;48.83
53246;BME280;39569;51.090;-1.786;2023-04-19T02:45:36;101713.38;;;17.08;49.15
53246;BME280;39569;51.090;-1.786;2023-04-19T02:48:03;101712.78;;;17.13;48.87
53246;BME280;39569;51.090;-1.786;2023-04-19T02:50:32;101714.47;;;17.14;48.86
53246;BME280;39569;51.090;-1.786;2023-04-19T02:52:58;101710.91;;;16.92;49.45
53246;BME280;39569;51.090;-1.786;2023-04-19T02:55:25;101712.94;;;17.05;48.62
53246;BME280;39569;51.090;-1.786;2023-04-19T02:57:52;101705.41;;;17.00;48.93
53246;BME280;39569;51.090;-1.786;2023-04-19T03:00:19;101715.19;;;16.87;49.18
53246;BME280;39569;51.090;-1.786;2023-04-19T03:02:45;101708.16;;;16.86;49.48
53246;BME280;39569;51.090;-1.786;2023-04-19T03:05:12;101721.38;;;16.81;49.48
53246;BME280;39569;51.090;-1.786;2023-04-19T03:07:40;101716.78;;;16.60;49.80
53246;BME280;39569;51.090;-1.786;2023-04-19T03:10:08;101715.41;;;16.85;48.98
53246;BME280;39569;51.090;-1.786;2023-04-19T03:12:35;101713.03;;;16.61;49.52
53246;BME280;39569;51.090;-1.786;2023-04-19T03:15:02;101712.16;;;16.90;49.17
53246;BME280;39569;51.090;-1.786;2023-04-19T03:17:29;101705.72;;;16.55;49.79
53246;BME280;39569;51.090;-1.786;2023-04-19T03:19:55;101712.41;;;16.95;48.79
53246;BME280;39569;51.090;-1.786;2023-04-19T03:22:22;101716.94;;;16.94;48.54
53246;BME280;39569;51.090;-1.786;2023-04-19T03:24:50;101705.91;;;16.89;48.81
53246;BME280;39569;51.090;-1.786;2023-04-19T03:27:17;101711.03;;;17.05;48.47
53246;BME280;39569;51.090;-1.786;2023-04-19T03:29:44;101707.75;;;16.89;48.63
53246;BME280;39569;51.090;-1.786;2023-04-19T03:32:11;101701.72;;;17.08;48.32
53246;BME280;39569;51.090;-1.786;2023-04-19T03:34:38;101700.19;;;16.99;48.64
53246;BME280;39569;51.090;-1.786;2023-04-19T03:37:05;101702.13;;;17.05;48.27
53246;BME280;39569;51.090;-1.786;2023-04-19T03:39:32;101701.78;;;17.35;47.43
53246;BME280;39569;51.090;-1.786;2023-04-19T03:42:00;101692.41;;;17.31;47.72
53246;BME280;39569;51.090;-1.786;2023-04-19T03:44:27;101697.31;;;17.21;47.78
53246;BME280;39569;51.090;-1.786;2023-04-19T03:46:54;101690.41;;;17.19;48.04
53246;BME280;39569;51.090;-1.786;2023-04-19T03:49:20;101686.75;;;17.47;47.22
53246;BME280;39569;51.090;-1.786;2023-04-19T03:51:47;101698.00;;;17.30;47.73
53246;BME280;39569;51.090;-1.786;2023-04-19T03:54:14;101680.19;;;17.56;46.89
53246;BME280;39569;51.090;-1.786;2023-04-19T03:56:41;101691.59;;;17.10;47.96
53246;BME280;39569;51.090;-1.786;2023-04-19T03:59:09;101693.00;;;17.27;47.84
53246;BME280;39569;51.090;-1.786;2023-04-19T04:01:36;101689.13;;;17.15;48.12
53246;BME280;39569;51.090;-1.786;2023-04-19T04:04:06;101681.81;;;16.88;48.40
53246;BME280;39569;51.090;-1.786;2023-04-19T04:06:33;101687.91;;;16.96;48.50
53246;BME280;39569;51.090;-1.786;2023-04-19T04:09:00;101685.34;;;16.88;48.41
53246;BME280;39569;51.090;-1.786;2023-04-19T04:11:27;101690.47;;;17.25;47.84
53246;BME280;39569;51.090;-1.786;2023-04-19T04:13:54;101689.75;;;17.38;47.41
53246;BME280;39569;51.090;-1.786;2023-04-19T04:16:23;101681.47;;;17.18;47.83
53246;BME280;39569;51.090;-1.786;2023-04-19T04:18:49;101682.84;;;17.08;48.08
53246;BME280;39569;51.090;-1.786;2023-04-19T04:21:16;101674.53;;;17.09;47.69
53246;BME280;39569;51.090;-1.786;2023-04-19T04:23:43;101669.66;;;16.98;47.95
53246;BME280;39569;51.090;-1.786;2023-04-19T04:26:10;101679.81;;;16.96;48.02
53246;BME280;39569;51.090;-1.786;2023-04-19T04:28:38;101677.09;;;16.96;48.17
53246;BME280;39569;51.090;-1.786;2023-04-19T04:31:05;101672.31;;;16.92;48.30
53246;BME280;39569;51.090;-1.786;2023-04-19T04:33:33;101681.31;;;16.63;49.09
53246;BME280;39569;51.090;-1.786;2023-04-19T04:36:00;101675.69;;;16.79;48.40
53246;BME280;39569;51.090;-1.786;2023-04-19T04:38:27;101679.13;;;16.52;49.15
53246;BME280;39569;51.090;-1.786;2023-04-19T04:40:54;101677.75;;;16.98;48.15
53246;BME280;39569;51.090;-1.786;2023-04-19T04:43:22;101680.06;;;16.30;49.64
53246;BME280;39569;51.090;-1.786;2023-04-19T04:45:50;101673.84;;;17.01;48.29
53246;BME280;39569;51.090;-1.786;2023-04-19T04:48:19;101668.09;;;16.68;48.71
53246;BME280;39569;51.090;-1.786;2023-04-19T04:50:48;101675.97;;;16.84;48.63
53246;BME280;39569;51.090;-1.786;2023-04-19T04:53:14;101672.53;;;16.76;48.60
53246;BME280;39569;51.090;-1.786;2023-04-19T04:55:41;101677.84;;;17.05;48.13
53246;BME280;39569;51.090;-1.786;2023-04-19T04:58:08;101689.81;;;16.81;48.58
53246;BME280;39569;51.090;-1.786;2023-04-19T05:00:34;101684.69;;;17.28;47.65
53246;BME280;39569;51.090;-1.786;2023-04-19T05:03:01;101681.16;;;17.49;47.29
53246;BME280;39569;51.090;-1.786;2023-04-19T05:05:28;101683.84;;;17.77;46.33
53246;BME280;39569;51.090;-1.786;2023-04-19T05:07:56;101685.16;;;17.87;46.32
53246;BME280;39569;51.090;-1.786;2023-04-19T05:10:23;101678.09;;;17.86;46.34
53246;BME280;39569;51.090;-1.786;2023-04-19T05:12:50;101678.91;;;17.87;46.16
53246;BME280;39569;51.090;-1.786;2023-04-19T05:15:17;101686.38;;;17.85;46.34
53246;BME280;39569;51.090;-1.786;2023-04-19T05:17:43;101686.31;;;17.72;46.75
53246;BME280;39569;51.090;-1.786;2023-04-19T05:20:10;101690.09;;;17.77;46.67
53246;BME280;39569;51.090;-1.786;2023-04-19T05:22:37;101693.19;;;17.74;46.64
53246;BME280;39569;51.090;-1.786;2023-04-19T05:25:06;101694.97;;;17.95;46.48
53246;BME280;39569;51.090;-1.786;2023-04-19T05:27:34;101690.25;;;18.03;46.17
53246;BME280;39569;51.090;-1.786;2023-04-19T05:30:00;101693.56;;;17.99;46.43
53246;BME280;39569;51.090;-1.786;2023-04-19T05:32:28;101693.69;;;17.91;46.41
53246;BME280;39569;51.090;-1.786;2023-04-19T05:34:55;101694.00;;;18.09;46.18
53246;BME280;39569;51.090;-1.786;2023-04-19T05:37:21;101688.16;;;17.99;46.66
53246;BME280;39569;51.090;-1.786;2023-04-19T05:39:49;101697.56;;;17.47;47.49
53246;BME280;39569;51.090;-1.786;2023-04-19T05:42:17;101699.41;;;18.09;46.76
53246;BME280;39569;51.090;-1.786;2023-04-19T05:44:44;101689.50;;;18.16;46.50
53246;BME280;39569;51.090;-1.786;2023-04-19T05:47:11;101687.50;;;17.20;48.59
53246;BME280;39569;51.090;-1.786;2023-04-19T05:49:38;101684.44;;;17.72;47.74
53246;BME280;39569;51.090;-1.786;2023-04-19T05:52:04;101684.28;;;17.80;47.61
53246;BME280;39569;51.090;-1.786;2023-04-19T05:54:31;101684.28;;;17.80;47.60
53246;BME280;39569;51.090;-1.786;2023-04-19T05:57:00;101689.16;;;17.98;47.42
53246;BME280;39569;51.090;-1.786;2023-04-19T05:59:28;101682.75;;;17.43;48.46
53246;BME280;39569;51.090;-1.786;2023-04-19T06:01:55;101688.38;;;17.70;47.96
53246;BME280;39569;51.090;-1.786;2023-04-19T06:04:22;101688.66;;;17.53;48.18
53246;BME280;39569;51.090;-1.786;2023-04-19T06:06:49;101699.47;;;17.32;48.79
53246;BME280;39569;51.090;-1.786;2023-04-19T06:09:16;101700.44;;;17.74;47.95
53246;BME280;39569;51.090;-1.786;2023-04-19T06:11:43;101694.84;;;18.03;47.16
53246;BME280;39569;51.090;-1.786;2023-04-19T06:14:10;101694.06;;;17.53;48.02
53246;BME280;39569;51.090;-1.786;2023-04-19T06:16:39;101695.53;;;17.56;48.39
53246;BME280;39569;51.090;-1.786;2023-04-19T06:19:06;101699.81;;;17.23;49.01
53246;BME280;39569;51.090;-1.786;2023-04-19T06:21:33;101696.22;;;17.64;47.95
53246;BME280;39569;51.090;-1.786;2023-04-19T06:24:00;101689.56;;;17.88;47.36
53246;BME280;39569;51.090;-1.786;2023-04-19T06:26:27;101680.81;;;17.58;47.92
53246;BME280;39569;51.090;-1.786;2023-04-19T06:28:53;101686.25;;;17.65;48.35
53246;BME280;39569;51.090;-1.786;2023-04-19T06:31:20;101692.97;;;17.76;48.08
53246;BME280;39569;51.090;-1.786;2023-04-19T06:33:49;101696.97;;;17.31;49.22
53246;BME280;39569;51.090;-1.786;2023-04-19T06:36:16;101690.34;;;17.54;48.53
53246;BME280;39569;51.090;-1.786;2023-04-19T06:38:42;101689.31;;;17.34;49.25
53246;BME280;39569;51.090;-1.786;2023-04-19T06:41:11;101693.50;;;16.95;49.75
53246;BME280;39569;51.090;-1.786;2023-04-19T06:43:38;101700.78;;;17.36;49.17
53246;BME280;39569;51.090;-1.786;2023-04-19T06:46:06;101702.28;;;17.66;48.53
53246;BME280;39569;51.090;-1.786;2023-04-19T06:48:33;101705.13;;;17.37;49.45
53246;BME280;39569;51.090;-1.786;2023-04-19T06:51:02;101699.22;;;17.76;48.39
53246;BME280;39569;51.090;-1.786;2023-04-19T06:53:29;101701.78;;;17.56;48.34
53246;BME280;39569;51.090;-1.786;2023-04-19T06:55:58;101703.44;;;17.57;48.80
53246;BME280;39569;51.090;-1.786;2023-04-19T06:58:26;101702.56;;;17.29;49.08
53246;BME280;39569;51.090;-1.786;2023-04-19T07:00:53;101708.75;;;17.72;48.41
53246;BME280;39569;51.090;-1.786;2023-04-19T07:03:20;101706.59;;;17.61;48.39
53246;BME280;39569;51.090;-1.786;2023-04-19T07:05:47;101713.41;;;17.85;47.99
53246;BME280;39569;51.090;-1.786;2023-04-19T07:08:15;101714.06;;;17.59;48.86
53246;BME280;39569;51.090;-1.786;2023-04-19T07:10:45;101708.66;;;17.59;48.92
53246;BME280;39569;51.090;-1.786;2023-04-19T07:13:12;101715.53;;;17.89;48.28
53246;BME280;39569;51.090;-1.786;2023-04-19T07:15:39;101718.59;;;17.80;48.17
53246;BME280;39569;51.090;-1.786;2023-04-19T07:18:06;101708.38;;;17.47;48.41
53246;BME280;39569;51.090;-1.786;2023-04-19T07:20:34;101720.63;;;17.78;48.51
53246;BME280;39569;51.090;-1.786;2023-04-19T07:23:01;101718.03;;;18.25;47.32
53246;BME280;39569;51.090;-1.786;2023-04-19T07:25:29;101718.78;;;18.46;47.12
53246;BME280;39569;51.090;-1.786;2023-04-19T07:27:56;101724.53;;;18.30;47.05
53246;BME280;39569;51.090;-1.786;2023-04-19T07:30:23;101724.75;;;18.35;47.47
53246;BME280;39569;51.090;-1.786;2023-04-19T07:32:50;101729.72;;;18.79;46.63
53246;BME280;39569;51.090;-1.786;2023-04-19T07:35:18;101723.78;;;18.43;47.31
53246;BME280;39569;51.090;-1.786;2023-04-19T07:37:44;101732.53;;;18.45;47.00
53246;BME280;39569;51.090;-1.786;2023-04-19T07:40:12;101729.53;;;18.74;46.85
53246;BME280;39569;51.090;-1.786;2023-04-19T07:42:41;101725.41;;;18.91;46.50
53246;BME280;39569;51.090;-1.786;2023-04-19T07:45:09;101717.34;;;19.17;45.77
53246;BME280;39569;51.090;-1.786;2023-04-19T07:47:36;101726.69;;;18.95;46.09
53246;BME280;39569;51.090;-1.786;2023-04-19T07:50:03;101723.78;;;19.10;45.61
53246;BME280;39569;51.090;-1.786;2023-04-19T07:52:31;101727.34;;;18.50;46.78
53246;BME280;39569;51.090;-1.786;2023-04-19T07:54:58;101723.84;;;19.82;44.69
53246;BME280;39569;51.090;-1.786;2023-04-19T07:57:26;101733.66;;;19.43;45.25
53246;BME280;39569;51.090;-1.786;2023-04-19T07:59:55;101731.78;;;19.77;44.37
53246;BME280;39569;51.090;-1.786;2023-04-19T08:02:24;101716.75;;;19.61;44.56
53246;BME280;39569;51.090;-1.786;2023-04-19T08:04:51;101725.13;;;19.40;45.01
53246;BME280;39569;51.090;-1.786;2023-04-19T08:07:18;101722.41;;;19.59;44.68
53246;BME280;39569;51.090;-1.786;2023-04-19T08:09:45;101725.31;;;19.84;44.26
53246;BME280;39569;51.090;-1.786;2023-04-19T08:12:12;101727.31;;;20.15;43.47
53246;BME280;39569;51.090;-1.786;2023-04-19T08:14:38;101716.97;;;19.86;43.68
53246;BME280;39569;51.090;-1.786;2023-04-19T08:17:08;101720.66;;;20.11;43.82
53246;BME280;39569;51.090;-1.786;2023-04-19T08:19:34;101718.34;;;20.78;42.42
53246;BME280;39569;51.090;-1.786;2023-04-19T08:22:01;101725.19;;;20.36;43.23
53246;BME280;39569;51.090;-1.786;2023-04-19T08:24:28;101722.19;;;19.54;44.68
53246;BME280;39569;51.090;-1.786;2023-04-19T08:26:56;101725.53;;;19.63;44.50
53246;BME280;39569;51.090;-1.786;2023-04-19T08:29:22;101724.38;;;20.16;43.48
53246;BME280;39569;51.090;-1.786;2023-04-19T08:31:50;101715.31;;;20.55;42.65
53246;BME280;39569;51.090;-1.786;2023-04-19T08:34:18;101723.72;;;20.40;42.76
53246;BME280;39569;51.090;-1.786;2023-04-19T08:36:45;101724.50;;;20.54;42.63
53246;BME280;39569;51.090;-1.786;2023-04-19T08:39:12;101713.09;;;21.21;41.66
53246;BME280;39569;51.090;-1.786;2023-04-19T08:41:39;101705.50;;;21.79;39.96
53246;BME280;39569;51.090;-1.786;2023-04-19T08:44:06;101708.19;;;23.05;37.84
53246;BME280;39569;51.090;-1.786;2023-04-19T08:46:35;101712.84;;;23.16;37.55
53246;BME280;39569;51.090;-1.786;2023-04-19T08:49:03;101710.81;;;23.65;36.74
53246;BME280;39569;51.090;-1.786;2023-04-19T08:51:32;101703.34;;;24.97;35.49
53246;BME280;39569;51.090;-1.786;2023-04-19T08:54:02;101702.78;;;24.95;34.50
53246;BME280;39569;51.090;-1.786;2023-04-19T08:56:30;101700.38;;;24.71;35.01
53246;BME280;39569;51.090;-1.786;2023-04-19T08:58:57;101705.94;;;25.49;34.41
53246;BME280;39569;51.090;-1.786;2023-04-19T09:01:23;101709.84;;;25.08;33.93
53246;BME280;39569;51.090;-1.786;2023-04-19T09:03:50;101709.00;;;24.40;34.86
53246;BME280;39569;51.090;-1.786;2023-04-19T09:06:17;101705.09;;;24.75;34.22
53246;BME280;39569;51.090;-1.786;2023-04-19T09:08:45;101712.09;;;25.94;33.26
53246;BME280;39569;51.090;-1.786;2023-04-19T09:11:12;101711.28;;;26.32;32.36
53246;BME280;39569;51.090;-1.786;2023-04-19T09:13:39;101710.31;;;25.05;33.77
53246;BME280;39569;51.090;-1.786;2023-04-19T09:16:22;101702.94;;;25.50;33.19
53246;BME280;39569;51.090;-1.786;2023-04-19T09:18:54;101699.81;;;27.63;31.03
53246;BME280;39569;51.090;-1.786;2023-04-19T09:21:31;101706.63;;;25.94;32.46
53246;BME280;39569;51.090;-1.786;2023-04-19T09:24:00;101696.88;;;26.03;33.39
53246;BME280;39569;51.090;-1.786;2023-04-19T09:26:28;101695.06;;;28.37;30.25
53246;BME280;39569;51.090;-1.786;2023-04-19T09:28:56;101692.50;;;28.20;29.77
53246;BME280;39569;51.090;-1.786;2023-04-19T09:31:23;101700.53;;;28.32;30.90
53246;BME280;39569;51.090;-1.786;2023-04-19T09:33:52;101699.16;;;27.19;30.63
53246;BME280;39569;51.090;-1.786;2023-04-19T09:36:27;101687.28;;;26.00;32.62
53246;BME280;39569;51.090;-1.786;2023-04-19T09:38:54;101700.66;;;26.78;32.63
53246;BME280;39569;51.090;-1.786;2023-04-19T09:41:22;101691.16;;;27.44;30.25
53246;BME280;39569;51.090;-1.786;2023-04-19T09:43:49;101685.66;;;26.64;31.69
53246;BME280;39569;51.090;-1.786;2023-04-19T09:46:31;101684.78;;;26.80;31.58
53246;BME280;39569;51.090;-1.786;2023-04-19T09:49:20;101676.84;;;27.79;29.80
53246;BME280;39569;51.090;-1.786;2023-04-19T09:51:48;101685.91;;;27.74;30.00
53246;BME280;39569;51.090;-1.786;2023-04-19T09:54:16;101675.25;;;28.30;30.79
53246;BME280;39569;51.090;-1.786;2023-04-19T09:56:46;101675.75;;;29.03;29.64
53246;BME280;39569;51.090;-1.786;2023-04-19T09:59:13;101667.25;;;28.23;29.90
53246;BME280;39569;51.090;-1.786;2023-04-19T10:01:43;101672.94;;;28.06;29.08
53246;BME280;39569;51.090;-1.786;2023-04-19T10:04:11;101672.72;;;26.38;31.80
53246;BME280;39569;51.090;-1.786;2023-04-19T10:06:45;101672.22;;;26.84;31.33
53246;BME280;39569;51.090;-1.786;2023-04-19T10:09:13;101661.28;;;27.89;30.30
53246;BME280;39569;51.090;-1.786;2023-04-19T10:11:40;101657.69;;;28.46;29.36
53246;BME280;39569;51.090;-1.786;2023-04-19T10:14:10;101645.31;;;27.40;30.71
53246;BME280;39569;51.090;-1.786;2023-04-19T10:16:37;101657.47;;;27.54;29.80
53246;BME280;39569;51.090;-1.786;2023-04-19T10:19:09;101651.53;;;27.67;29.69
53246;BME280;39569;51.090;-1.786;2023-04-19T10:21:37;101649.28;;;28.77;28.20
53246;BME280;39569;51.090;-1.786;2023-04-19T10:24:04;101652.91;;;29.38;27.77
53246;BME280;39569;51.090;-1.786;2023-04-19T10:27:07;101649.66;;;28.29;28.19
53246;BME280;39569;51.090;-1.786;2023-04-19T10:29:57;101637.44;;;28.67;27.69
53246;BME280;39569;51.090;-1.786;2023-04-19T10:32:26;101645.41;;;28.68;28.21
53246;BME280;39569;51.090;-1.786;2023-04-19T10:34:53;101645.47;;;29.08;27.49
53246;BME280;39569;51.090;-1.786;2023-04-19T10:37:21;101629.81;;;29.29;26.75
53246;BME280;39569;51.090;-1.786;2023-04-19T10:39:49;101636.47;;;30.22;26.53
53246;BME280;39569;51.090;-1.786;2023-04-19T10:42:16;101638.75;;;30.69;26.03
53246;BME280;39569;51.090;-1.786;2023-04-19T10:47:44;101644.28;;;30.10;26.65
53246;BME280;39569;51.090;-1.786;2023-04-19T10:50:11;101633.44;;;30.24;25.95
53246;BME280;39569;51.090;-1.786;2023-04-19T10:52:41;101635.16;;;30.10;26.45
53246;BME280;39569;51.090;-1.786;2023-04-19T10:55:08;101633.44;;;28.28;28.25
53246;BME280;39569;51.090;-1.786;2023-04-19T10:58:02;101641.03;;;28.00;28.51
53246;BME280;39569;51.090;-1.786;2023-04-19T11:00:29;101634.56;;;28.37;27.90
53246;BME280;39569;51.090;-1.786;2023-04-19T11:02:59;101622.78;;;30.61;25.65
53246;BME280;39569;51.090;-1.786;2023-04-19T11:06:13;101629.78;;;29.49;27.26
53246;BME280;39569;51.090;-1.786;2023-04-19T11:08:42;101633.47;;;28.33;27.88
53246;BME280;39569;51.090;-1.786;2023-04-19T11:11:09;101616.94;;;26.01;30.02
53246;BME280;39569;51.090;-1.786;2023-04-19T11:13:37;101636.78;;;27.09;29.64
53246;BME280;39569;51.090;-1.786;2023-04-19T11:16:06;101623.94;;;27.47;29.08
53246;BME280;39569;51.090;-1.786;2023-04-19T11:18:34;101624.56;;;29.58;26.78
53246;BME280;39569;51.090;-1.786;2023-04-19T11:21:01;101623.16;;;29.70;27.11
53246;BME280;39569;51.090;-1.786;2023-04-19T11:23:28;101605.88;;;29.25;26.26
53246;BME280;39569;51.090;-1.786;2023-04-19T11:25:55;101625.63;;;27.53;28.72
53246;BME280;39569;51.090;-1.786;2023-04-19T11:28:22;101629.59;;;28.24;28.42
53246;BME280;39569;51.090;-1.786;2023-04-19T11:30:49;101613.88;;;28.09;28.56
53246;BME280;39569;51.090;-1.786;2023-04-19T11:33:18;101609.13;;;28.56;26.99
53246;BME280;39569;51.090;-1.786;2023-04-19T11:35:50;101611.78;;;27.79;27.67
53246;BME280;39569;51.090;-1.786;2023-04-19T11:38:17;101608.72;;;27.76;27.97
53246;BME280;39569;51.090;-1.786;2023-04-19T11:40:44;101618.72;;;26.34;30.08
53246;BME280;39569;51.090;-1.786;2023-04-19T11:43:11;101605.75;;;29.85;25.97
53246;BME280;39569;51.090;-1.786;2023-04-19T11:45:37;101597.13;;;30.65;24.87
53246;BME280;39569;51.090;-1.786;2023-04-19T11:48:05;101593.19;;;30.76;25.03
53246;BME280;39569;51.090;-1.786;2023-04-19T11:50:34;101603.44;;;28.06;27.01
53246;BME280;39569;51.090;-1.786;2023-04-19T11:53:13;101611.13;;;26.67;28.96
53246;BME280;39569;51.090;-1.786;2023-04-19T11:55:45;101597.25;;;29.71;26.52
53246;BME280;39569;51.090;-1.786;2023-04-19T11:58:28;101592.66;;;31.65;23.38
53246;BME280;39569;51.090;-1.786;2023-04-19T12:01:00;101600.34;;;29.35;25.65
53246;BME280;39569;51.090;-1.786;2023-04-19T12:03:28;101606.38;;;28.61;27.04
53246;BME280;39569;51.090;-1.786;2023-04-19T12:05:56;101611.56;;;26.81;28.93
53246;BME280;39569;51.090;-1.786;2023-04-19T12:08:32;101617.69;;;25.58;30.21
53246;BME280;39569;51.090;-1.786;2023-04-19T12:11:00;101606.53;;;24.65;31.59
53246;BME280;39569;51.090;-1.786;2023-04-19T12:13:28;101613.81;;;24.88;31.97
53246;BME280;39569;51.090;-1.786;2023-04-19T12:15:55;101608.50;;;25.14;32.25
53246;BME280;39569;51.090;-1.786;2023-04-19T12:18:22;101619.31;;;24.48;32.45
53246;BME280;39569;51.090;-1.786;2023-04-19T12:20:50;101609.31;;;24.98;31.67
53246;BME280;39569;51.090;-1.786;2023-04-19T12:23:19;101609.25;;;25.10;31.95
53246;BME280;39569;51.090;-1.786;2023-04-19T12:25:47;101607.69;;;24.69;32.23
53246;BME280;39569;51.090;-1.786;2023-04-19T12:28:15;101615.66;;;24.71;32.74
53246;BME280;39569;51.090;-1.786;2023-04-19T12:30:42;101608.31;;;25.92;30.76
53246;BME280;39569;51.090;-1.786;2023-04-19T12:33:09;101609.72;;;25.73;31.04
53246;BME280;39569;51.090;-1.786;2023-04-19T12:35:36;101605.97;;;25.63;31.19
53246;BME280;39569;51.090;-1.786;2023-04-19T12:38:03;101601.66;;;26.53;29.69
53246;BME280;39569;51.090;-1.786;2023-04-19T12:40:30;101597.31;;;25.49;31.57
53246;BME280;39569;51.090;-1.786;2023-04-19T12:42:58;101611.72;;;25.61;30.98
53246;BME280;39569;51.090;-1.786;2023-04-19T12:45:26;101608.97;;;24.78;31.84
53246;BME280;39569;51.090;-1.786;2023-04-19T12:47:52;101615.97;;;24.46;32.65